Terminal Aerodrome Forecast
Issued by NWS

Home | Current Version | Previous Version | Text Only | Print | Product List | Glossary On
Versions: 1 2 3 4 5 6 7 8 9 10 11 12 13 14
000
FTAK31 PANC 212322
TAFAAQ
TAF
PAAQ 212322Z 2200/2224 15018G25KT P6SM FEW040 SCT080 BKN120
     FM220800 06005KT P6SM SCT080 BKN200
     FM221200 02008KT P6SM SCT100 BKN200
     FM222200 12012KT P6SM SCT060 BKN120=

USA.gov is the U.S. government's official web portal to all federal, state and local government web resources and services.